Stanley, NY (14561)

4:43 PM EST on November 26, 2014 (GMT -0500)
J MInns Farm | Change Station
CLOSE
Current Station
Personal Weather Station
Location: Stanley, NY
Elevation: 833 ft
Nearby Weather Stations

Elev 833 ft 42.87 °N, 77.09 °W | Updated 3 minutes ago

Snow
Snow
30.3 °F
Feels Like 30 °F
N
0.0
Wind Variable Wind from NNW
Gusts 9.0 mph

Today
High -- | Low -- °F
--% Chance of Precip.
Yesterday
High -- | Low -- °F
Precip. -- in
7:13 AM 4:37 PM
Waxing Crescent, 23% visible
Pressure 30.05 in
Visibility 0.8 miles
Clouds Scattered Clouds 500 ft
Overcast 1100 ft
Windchill 30 °F
Dew Point 29 °F
Humidity 95%
Rainfall 0.00 in
Snow Depth Not available.
UV 0 out of 12
Pollen .10 out of 12
Air Quality Not available.
Flu Activity Not available.
SPECI KPEO 262028Z AUTO 34005KT 3/4SM -SN BR SCT005 OVC011 M01/M02 A3005 RMK AO2 P0002 T10061017 RVRNO

More Conditions Fewer Conditions

Pressure 30.05 in
Visibility 0.8 miles
Clouds Scattered Clouds 500 ft
Overcast 1100 ft
Windchill 30 °F
Dew Point 29 °F
Humidity 95%
Rainfall 0.00 in
Snow Depth Not available.
UV 0 out of 12
Pollen .10 out of 12
Air Quality Not available.
Flu Activity Not available.
SPECI KPEO 262028Z AUTO 34005KT 3/4SM -SN BR SCT005 OVC011 M01/M02 A3005 RMK AO2 P0002 T10061017 RVRNO

More Conditions Fewer Conditions

10-Day Weather Forecast

Almanac

Astronomy

Nov. 26, 2014 Rise Set
Actual Time
Civil Twilight
Nautical Twilight
Astronomical Twilight
Moon
Length of Visible Light
Length of Day
Tomorrow will be .
, % of the Moon is Illuminated

Today's Extremes

State Highs State Lows

Community

WunderPhotos

Upload Photos

1,773,876 photos uploaded!

WunderBlogs® & News

Nearby

Air Quality

  Air Quality AQ Index Pollutant
Not available.

Snow Depth

Station Depth Elevation

Earthquake Activity

City Distance Mag. Time & Date
Minimum magnitude displayed is 2.5.

Coastal Water Temperatures

Place Temperature

Nearby Weather Stations